sensor_id;sensor_type;location;lat;lon;timestamp;pressure;altitude;pressure_sealevel;temperature;humidity
15932;BME280;8065;49.520;11.284;2023-02-20T00:01:45;98369.22;;;11.68;85.40
15932;BME280;8065;49.520;11.284;2023-02-20T00:04:12;98363.91;;;11.68;85.63
15932;BME280;8065;49.520;11.284;2023-02-20T00:06:38;98363.91;;;11.68;85.57
15932;BME280;8065;49.520;11.284;2023-02-20T00:09:05;98370.81;;;11.69;85.52
15932;BME280;8065;49.520;11.284;2023-02-20T00:11:33;98371.88;;;11.68;85.91
15932;BME280;8065;49.520;11.284;2023-02-20T00:13:59;98376.13;;;11.69;85.57
15932;BME280;8065;49.520;11.284;2023-02-20T00:16:25;98377.50;;;11.66;85.79
15932;BME280;8065;49.520;11.284;2023-02-20T00:18:52;98379.53;;;11.83;84.97
15932;BME280;8065;49.520;11.284;2023-02-20T00:21:18;98380.22;;;11.89;84.86
15932;BME280;8065;49.520;11.284;2023-02-20T00:23:45;98381.78;;;11.90;84.78
15932;BME280;8065;49.520;11.284;2023-02-20T00:26:12;98376.50;;;11.76;85.22
15932;BME280;8065;49.520;11.284;2023-02-20T00:28:42;98376.28;;;11.86;84.76
15932;BME280;8065;49.520;11.284;2023-02-20T00:31:13;98377.84;;;11.87;84.63
15932;BME280;8065;49.520;11.284;2023-02-20T00:33:40;98377.84;;;11.87;84.73
15932;BME280;8065;49.520;11.284;2023-02-20T00:36:07;98385.84;;;11.87;84.99
15932;BME280;8065;49.520;11.284;2023-02-20T00:38:34;98392.44;;;11.90;84.83
15932;BME280;8065;49.520;11.284;2023-02-20T00:41:00;98391.84;;;11.93;84.47
15932;BME280;8065;49.520;11.284;2023-02-20T00:43:27;98389.47;;;11.91;84.76
15932;BME280;8065;49.520;11.284;2023-02-20T00:45:57;98392.75;;;11.88;84.95
15932;BME280;8065;49.520;11.284;2023-02-20T00:48:23;98389.91;;;11.85;85.08
15932;BME280;8065;49.520;11.284;2023-02-20T00:50:49;98393.47;;;11.80;85.15
15932;BME280;8065;49.520;11.284;2023-02-20T00:53:16;98385.72;;;11.92;84.60
15932;BME280;8065;49.520;11.284;2023-02-20T00:55:42;98384.94;;;11.92;84.64
15932;BME280;8065;49.520;11.284;2023-02-20T00:58:09;98378.34;;;11.89;84.57
15932;BME280;8065;49.520;11.284;2023-02-20T01:00:35;98374.09;;;11.88;84.76
15932;BME280;8065;49.520;11.284;2023-02-20T01:03:03;98373.91;;;11.85;84.76
15932;BME280;8065;49.520;11.284;2023-02-20T01:05:29;98372.38;;;11.70;85.65
15932;BME280;8065;49.520;11.284;2023-02-20T01:07:56;98374.91;;;11.75;85.46
15932;BME280;8065;49.520;11.284;2023-02-20T01:10:22;98376.44;;;11.67;85.97
15932;BME280;8065;49.520;11.284;2023-02-20T01:12:49;98369.59;;;11.75;85.61
15932;BME280;8065;49.520;11.284;2023-02-20T01:15:15;98380.16;;;11.80;85.38
15932;BME280;8065;49.520;11.284;2023-02-20T01:17:41;98379.28;;;11.71;85.68
15932;BME280;8065;49.520;11.284;2023-02-20T01:20:10;98380.44;;;11.78;85.73
15932;BME280;8065;49.520;11.284;2023-02-20T01:22:37;98384.38;;;11.81;85.54
15932;BME280;8065;49.520;11.284;2023-02-20T01:25:04;98386.56;;;11.79;85.56
15932;BME280;8065;49.520;11.284;2023-02-20T01:27:30;98384.38;;;11.81;85.69
15932;BME280;8065;49.520;11.284;2023-02-20T01:29:57;98373.63;;;11.86;85.45
15932;BME280;8065;49.520;11.284;2023-02-20T01:32:23;98383.00;;;11.84;85.45
15932;BME280;8065;49.520;11.284;2023-02-20T01:34:50;98369.00;;;11.78;85.70
15932;BME280;8065;49.520;11.284;2023-02-20T01:37:17;98371.16;;;11.76;85.45
15932;BME280;8065;49.520;11.284;2023-02-20T01:39:45;98376.41;;;11.81;85.46
15932;BME280;8065;49.520;11.284;2023-02-20T01:42:15;98382.81;;;11.80;85.42
15932;BME280;8065;49.520;11.284;2023-02-20T01:44:43;98375.31;;;11.82;85.75
15932;BME280;8065;49.520;11.284;2023-02-20T01:47:11;98385.38;;;11.71;85.68
15932;BME280;8065;49.520;11.284;2023-02-20T01:49:42;98377.69;;;11.70;85.77
15932;BME280;8065;49.520;11.284;2023-02-20T01:52:13;98371.09;;;11.67;85.63
15932;BME280;8065;49.520;11.284;2023-02-20T01:54:44;98361.34;;;11.63;85.43
15932;BME280;8065;49.520;11.284;2023-02-20T01:57:18;98369.22;;;11.68;85.04
15932;BME280;8065;49.520;11.284;2023-02-20T01:59:46;98372.38;;;11.70;84.99
15932;BME280;8065;49.520;11.284;2023-02-20T02:02:14;98365.19;;;11.70;85.02
15932;BME280;8065;49.520;11.284;2023-02-20T02:04:42;98368.81;;;11.74;84.92
15932;BME280;8065;49.520;11.284;2023-02-20T02:07:10;98365.25;;;11.79;84.90
15932;BME280;8065;49.520;11.284;2023-02-20T02:09:40;98374.69;;;11.85;84.17
15932;BME280;8065;49.520;11.284;2023-02-20T02:12:11;98360.50;;;11.76;84.34
15932;BME280;8065;49.520;11.284;2023-02-20T02:14:37;98356.78;;;11.77;84.41
15932;BME280;8065;49.520;11.284;2023-02-20T02:17:33;98362.13;;;11.77;83.92
15932;BME280;8065;49.520;11.284;2023-02-20T02:20:30;98358.38;;;11.78;84.01
15932;BME280;8065;49.520;11.284;2023-02-20T02:23:38;98355.19;;;11.76;83.82
15932;BME280;8065;49.520;11.284;2023-02-20T02:26:29;98361.72;;;11.70;83.83
15932;BME280;8065;49.520;11.284;2023-02-20T02:29:21;98359.19;;;11.65;83.53
15932;BME280;8065;49.520;11.284;2023-02-20T02:32:23;98354.34;;;11.67;84.08
15932;BME280;8065;49.520;11.284;2023-02-20T02:35:18;98349.13;;;11.62;83.81
15932;BME280;8065;49.520;11.284;2023-02-20T02:38:00;98347.50;;;11.74;83.25
15932;BME280;8065;49.520;11.284;2023-02-20T02:40:37;98349.66;;;11.86;82.84
15932;BME280;8065;49.520;11.284;2023-02-20T02:43:08;98346.50;;;11.84;83.05
15932;BME280;8065;49.520;11.284;2023-02-20T02:45:44;98341.88;;;11.76;82.66
15932;BME280;8065;49.520;11.284;2023-02-20T02:48:18;98332.69;;;11.82;82.65
15932;BME280;8065;49.520;11.284;2023-02-20T02:50:48;98334.09;;;11.79;82.93
15932;BME280;8065;49.520;11.284;2023-02-20T02:53:16;98329.56;;;11.80;82.56
15932;BME280;8065;49.520;11.284;2023-02-20T02:55:43;98327.00;;;11.75;82.77
15932;BME280;8065;49.520;11.284;2023-02-20T02:58:10;98328.56;;;11.76;82.76
15932;BME280;8065;49.520;11.284;2023-02-20T03:00:40;98325.25;;;11.70;82.65
15932;BME280;8065;49.520;11.284;2023-02-20T03:03:10;98320.69;;;11.71;82.84
15932;BME280;8065;49.520;11.284;2023-02-20T03:05:41;98324.94;;;11.72;82.67
15932;BME280;8065;49.520;11.284;2023-02-20T03:08:18;98336.69;;;11.71;82.63
15932;BME280;8065;49.520;11.284;2023-02-20T03:10:56;98340.06;;;11.63;82.57
15932;BME280;8065;49.520;11.284;2023-02-20T03:13:25;98339.56;;;11.61;82.70
15932;BME280;8065;49.520;11.284;2023-02-20T03:16:11;98345.94;;;11.73;82.20
15932;BME280;8065;49.520;11.284;2023-02-20T03:18:40;98344.53;;;11.76;82.21
15932;BME280;8065;49.520;11.284;2023-02-20T03:21:11;98351.47;;;11.77;82.25
15932;BME280;8065;49.520;11.284;2023-02-20T03:23:43;98345.22;;;11.81;82.09
15932;BME280;8065;49.520;11.284;2023-02-20T03:26:14;98345.53;;;11.80;81.74
15932;BME280;8065;49.520;11.284;2023-02-20T03:28:45;98346.94;;;11.77;81.99
15932;BME280;8065;49.520;11.284;2023-02-20T03:31:15;98355.56;;;11.83;81.90
15932;BME280;8065;49.520;11.284;2023-02-20T03:33:46;98357.75;;;11.81;82.14
15932;BME280;8065;49.520;11.284;2023-02-20T03:36:34;98361.88;;;11.87;81.82
15932;BME280;8065;49.520;11.284;2023-02-20T03:39:24;98361.88;;;11.87;81.57
15932;BME280;8065;49.520;11.284;2023-02-20T03:42:14;98354.97;;;11.86;81.59
15932;BME280;8065;49.520;11.284;2023-02-20T03:45:00;98346.50;;;11.84;81.53
15932;BME280;8065;49.520;11.284;2023-02-20T03:47:29;98345.63;;;11.75;81.88
15932;BME280;8065;49.520;11.284;2023-02-20T03:49:57;98343.47;;;11.77;81.69
15932;BME280;8065;49.520;11.284;2023-02-20T03:52:25;98338.97;;;11.64;81.80
15932;BME280;8065;49.520;11.284;2023-02-20T03:54:53;98336.69;;;11.71;81.69
15932;BME280;8065;49.520;11.284;2023-02-20T03:57:23;98346.41;;;11.75;81.41
15932;BME280;8065;49.520;11.284;2023-02-20T03:59:55;98335.59;;;11.72;81.99
15932;BME280;8065;49.520;11.284;2023-02-20T04:02:25;98343.81;;;11.62;82.21
15932;BME280;8065;49.520;11.284;2023-02-20T04:04:56;98350.94;;;11.53;81.99
15932;BME280;8065;49.520;11.284;2023-02-20T04:07:34;98346.91;;;11.55;81.86
15932;BME280;8065;49.520;11.284;2023-02-20T04:10:05;98355.66;;;11.56;81.87
15932;BME280;8065;49.520;11.284;2023-02-20T04:12:35;98350.22;;;11.61;81.63
15932;BME280;8065;49.520;11.284;2023-02-20T04:15:05;98347.31;;;11.48;81.72
15932;BME280;8065;49.520;11.284;2023-02-20T04:17:37;98354.88;;;11.55;81.68
15932;BME280;8065;49.520;11.284;2023-02-20T04:20:05;98349.59;;;11.41;81.97
15932;BME280;8065;49.520;11.284;2023-02-20T04:22:37;98357.66;;;11.50;81.92
15932;BME280;8065;49.520;11.284;2023-02-20T04:25:11;98355.91;;;11.45;82.08
15932;BME280;8065;49.520;11.284;2023-02-20T04:27:40;98352.53;;;11.54;81.80
15932;BME280;8065;49.520;11.284;2023-02-20T04:30:07;98342.28;;;11.47;81.67
15932;BME280;8065;49.520;11.284;2023-02-20T04:32:34;98340.31;;;11.53;81.86
15932;BME280;8065;49.520;11.284;2023-02-20T04:35:01;98337.56;;;11.44;82.14
15932;BME280;8065;49.520;11.284;2023-02-20T04:37:27;98337.16;;;11.50;81.97
15932;BME280;8065;49.520;11.284;2023-02-20T04:39:54;98340.31;;;11.53;81.69
15932;BME280;8065;49.520;11.284;2023-02-20T04:42:22;98334.75;;;11.63;81.32
15932;BME280;8065;49.520;11.284;2023-02-20T04:44:48;98336.31;;;11.64;81.39
15932;BME280;8065;49.520;11.284;2023-02-20T04:47:16;98344.66;;;11.71;80.98
15932;BME280;8065;49.520;11.284;2023-02-20T04:49:43;98346.34;;;11.67;80.78
15932;BME280;8065;49.520;11.284;2023-02-20T04:52:10;98349.13;;;11.62;81.11
15932;BME280;8065;49.520;11.284;2023-02-20T04:54:36;98353.84;;;11.65;80.99
15932;BME280;8065;49.520;11.284;2023-02-20T04:57:03;98352.88;;;11.61;81.08
15932;BME280;8065;49.520;11.284;2023-02-20T04:59:30;98344.91;;;11.61;80.79
15932;BME280;8065;49.520;11.284;2023-02-20T05:01:57;98357.25;;;11.57;81.18
15932;BME280;8065;49.520;11.284;2023-02-20T05:04:26;98344.97;;;11.47;81.06
15932;BME280;8065;49.520;11.284;2023-02-20T05:06:54;98346.97;;;11.64;80.73
15932;BME280;8065;49.520;11.284;2023-02-20T05:09:21;98347.44;;;11.66;80.61
15932;BME280;8065;49.520;11.284;2023-02-20T05:11:48;98355.38;;;11.57;80.85
15932;BME280;8065;49.520;11.284;2023-02-20T05:14:15;98359.41;;;11.55;80.64
15932;BME280;8065;49.520;11.284;2023-02-20T05:16:43;98358.22;;;11.61;80.64
15932;BME280;8065;49.520;11.284;2023-02-20T05:19:10;98371.03;;;11.59;80.60
15932;BME280;8065;49.520;11.284;2023-02-20T05:21:37;98371.94;;;11.54;80.39
15932;BME280;8065;49.520;11.284;2023-02-20T05:24:21;98373.44;;;11.46;81.10
15932;BME280;8065;49.520;11.284;2023-02-20T05:26:48;98371.16;;;11.54;80.84
15932;BME280;8065;49.520;11.284;2023-02-20T05:29:15;98370.66;;;11.52;80.75
15932;BME280;8065;49.520;11.284;2023-02-20T05:31:43;98366.31;;;11.56;80.57
15932;BME280;8065;49.520;11.284;2023-02-20T05:34:09;98370.19;;;11.49;80.85
15932;BME280;8065;49.520;11.284;2023-02-20T05:36:35;98377.06;;;11.50;80.40
15932;BME280;8065;49.520;11.284;2023-02-20T05:39:02;98374.84;;;11.44;80.83
15932;BME280;8065;49.520;11.284;2023-02-20T05:41:29;98386.88;;;11.41;81.11
15932;BME280;8065;49.520;11.284;2023-02-20T05:43:56;98388.44;;;11.42;80.75
15932;BME280;8065;49.520;11.284;2023-02-20T05:46:24;98393.16;;;11.45;80.68
15932;BME280;8065;49.520;11.284;2023-02-20T05:48:53;98405.00;;;11.39;80.48
15932;BME280;8065;49.520;11.284;2023-02-20T05:51:22;98396.53;;;11.37;80.62
15932;BME280;8065;49.520;11.284;2023-02-20T05:53:48;98395.34;;;11.43;80.56
15932;BME280;8065;49.520;11.284;2023-02-20T05:56:15;98395.34;;;11.43;80.40
15932;BME280;8065;49.520;11.284;2023-02-20T05:58:42;98394.97;;;11.36;80.34
15932;BME280;8065;49.520;11.284;2023-02-20T06:01:14;98395.34;;;11.43;80.11
15932;BME280;8065;49.520;11.284;2023-02-20T06:03:41;98395.94;;;11.40;79.74
15932;BME280;8065;49.520;11.284;2023-02-20T06:06:09;98386.75;;;11.46;80.06
15932;BME280;8065;49.520;11.284;2023-02-20T06:08:35;98401.25;;;11.40;78.94
15932;BME280;8065;49.520;11.284;2023-02-20T06:11:02;98395.53;;;11.47;79.00
15932;BME280;8065;49.520;11.284;2023-02-20T06:13:28;98391.00;;;11.47;78.96
15932;BME280;8065;49.520;11.284;2023-02-20T06:15:55;98391.09;;;11.42;78.80
15932;BME280;8065;49.520;11.284;2023-02-20T06:18:21;98386.38;;;11.39;78.79
15932;BME280;8065;49.520;11.284;2023-02-20T06:20:48;98380.34;;;11.25;78.53
15932;BME280;8065;49.520;11.284;2023-02-20T06:23:16;98380.78;;;11.27;78.44
15932;BME280;8065;49.520;11.284;2023-02-20T06:25:42;98400.63;;;11.21;78.17
15932;BME280;8065;49.520;11.284;2023-02-20T06:28:09;98406.66;;;11.13;77.88
15932;BME280;8065;49.520;11.284;2023-02-20T06:30:35;98400.75;;;11.16;77.90
15932;BME280;8065;49.520;11.284;2023-02-20T06:33:01;98409.09;;;11.23;77.89
15932;BME280;8065;49.520;11.284;2023-02-20T06:35:28;98419.75;;;11.09;78.24
15932;BME280;8065;49.520;11.284;2023-02-20T06:37:54;98414.53;;;11.18;77.58
15932;BME280;8065;49.520;11.284;2023-02-20T06:40:22;98411.47;;;11.25;77.90
15932;BME280;8065;49.520;11.284;2023-02-20T06:42:49;98414.53;;;11.18;77.25
15932;BME280;8065;49.520;11.284;2023-02-20T06:45:15;98420.03;;;11.22;77.34
15932;BME280;8065;49.520;11.284;2023-02-20T06:47:42;98417.69;;;11.20;77.27
15932;BME280;8065;49.520;11.284;2023-02-20T06:50:08;98421.81;;;11.26;77.50
15932;BME280;8065;49.520;11.284;2023-02-20T06:52:35;98417.69;;;11.20;77.40
15932;BME280;8065;49.520;11.284;2023-02-20T06:55:01;98413.94;;;11.21;77.21
15932;BME280;8065;49.520;11.284;2023-02-20T06:57:30;98405.84;;;11.26;77.13
15932;BME280;8065;49.520;11.284;2023-02-20T06:59:57;98412.84;;;11.22;77.37
15932;BME280;8065;49.520;11.284;2023-02-20T07:02:23;98410.69;;;11.24;77.54
15932;BME280;8065;49.520;11.284;2023-02-20T07:04:50;98407.03;;;11.20;77.46
15932;BME280;8065;49.520;11.284;2023-02-20T07:07:16;98409.59;;;11.25;77.72
15932;BME280;8065;49.520;11.284;2023-02-20T07:09:42;98401.13;;;11.23;77.54
15932;BME280;8065;49.520;11.284;2023-02-20T07:12:09;98421.97;;;11.30;77.29
15932;BME280;8065;49.520;11.284;2023-02-20T07:14:39;98418.38;;;11.12;77.45
15932;BME280;8065;49.520;11.284;2023-02-20T07:17:06;98418.88;;;11.14;78.05
15932;BME280;8065;49.520;11.284;2023-02-20T07:19:32;98412.84;;;11.22;78.20
15932;BME280;8065;49.520;11.284;2023-02-20T07:21:59;98401.91;;;11.24;78.19
15932;BME280;8065;49.520;11.284;2023-02-20T07:24:25;98397.31;;;10.47;80.71
15932;BME280;8065;49.520;11.284;2023-02-20T07:26:53;98392.03;;;10.14;82.14
15932;BME280;8065;49.520;11.284;2023-02-20T07:29:19;98388.69;;;10.09;82.74
15932;BME280;8065;49.520;11.284;2023-02-20T07:31:47;98400.28;;;10.13;83.32
15932;BME280;8065;49.520;11.284;2023-02-20T07:34:13;98401.06;;;10.13;82.80
15932;BME280;8065;49.520;11.284;2023-02-20T07:36:40;98400.66;;;10.06;82.41
15932;BME280;8065;49.520;11.284;2023-02-20T07:39:07;98400.50;;;10.16;83.12
15932;BME280;8065;49.520;11.284;2023-02-20T07:41:33;98408.81;;;10.29;81.71
15932;BME280;8065;49.520;11.284;2023-02-20T07:44:00;98410.31;;;10.35;81.79
15932;BME280;8065;49.520;11.284;2023-02-20T07:46:26;98416.28;;;10.27;82.27
15932;BME280;8065;49.520;11.284;2023-02-20T07:48:59;98425.44;;;10.48;81.65
15932;BME280;8065;49.520;11.284;2023-02-20T07:51:26;98420.34;;;10.65;81.12
15932;BME280;8065;49.520;11.284;2023-02-20T07:53:52;98406.56;;;10.91;80.65
15932;BME280;8065;49.520;11.284;2023-02-20T07:56:20;98411.00;;;11.09;79.97
15932;BME280;8065;49.520;11.284;2023-02-20T07:58:47;98401.53;;;11.16;79.58
15932;BME280;8065;49.520;11.284;2023-02-20T08:01:14;98402.25;;;11.31;78.96
15932;BME280;8065;49.520;11.284;2023-02-20T08:03:40;98394.72;;;11.46;78.24
15932;BME280;8065;49.520;11.284;2023-02-20T08:06:08;98397.53;;;11.64;77.45
15932;BME280;8065;49.520;11.284;2023-02-20T08:08:35;98393.84;;;11.87;76.80
15932;BME280;8065;49.520;11.284;2023-02-20T08:11:01;98385.00;;;12.00;76.43
15932;BME280;8065;49.520;11.284;2023-02-20T08:13:28;98393.53;;;11.89;75.70
15932;BME280;8065;49.520;11.284;2023-02-20T08:15:55;98391.03;;;11.92;75.50
15932;BME280;8065;49.520;11.284;2023-02-20T08:18:21;98382.06;;;12.10;75.12
15932;BME280;8065;49.520;11.284;2023-02-20T08:20:47;98388.78;;;12.39;73.93
15932;BME280;8065;49.520;11.284;2023-02-20T08:23:17;98387.38;;;12.41;73.99
15932;BME280;8065;49.520;11.284;2023-02-20T08:25:44;98380.09;;;12.64;73.45
15932;BME280;8065;49.520;11.284;2023-02-20T08:28:11;98389.19;;;12.63;72.68
15932;BME280;8065;49.520;11.284;2023-02-20T08:30:38;98400.47;;;12.60;72.70
15932;BME280;8065;49.520;11.284;2023-02-20T08:33:05;98392.13;;;12.53;72.53
15932;BME280;8065;49.520;11.284;2023-02-20T08:35:32;98396.47;;;12.40;72.67
15932;BME280;8065;49.520;11.284;2023-02-20T08:37:59;98381.97;;;12.24;72.48
15932;BME280;8065;49.520;11.284;2023-02-20T08:40:27;98382.31;;;12.31;72.61
15932;BME280;8065;49.520;11.284;2023-02-20T08:42:54;98373.59;;;12.08;73.78
15932;BME280;8065;49.520;11.284;2023-02-20T08:45:20;98375.50;;;12.47;73.06
15932;BME280;8065;49.520;11.284;2023-02-20T08:47:48;98379.09;;;12.91;71.75
15932;BME280;8065;49.520;11.284;2023-02-20T08:50:14;98372.41;;;13.28;70.34
15932;BME280;8065;49.520;11.284;2023-02-20T08:52:41;98376.97;;;13.28;70.15
15932;BME280;8065;49.520;11.284;2023-02-20T08:55:08;98370.38;;;13.25;69.85
15932;BME280;8065;49.520;11.284;2023-02-20T08:57:35;98354.78;;;13.10;69.39
15932;BME280;8065;49.520;11.284;2023-02-20T09:00:04;98355.41;;;13.07;69.90
15932;BME280;8065;49.520;11.284;2023-02-20T09:02:31;98347.72;;;13.14;69.61
15932;BME280;8065;49.520;11.284;2023-02-20T09:04:57;98357.97;;;13.64;68.24
15932;BME280;8065;49.520;11.284;2023-02-20T09:07:24;98357.44;;;13.96;68.14
15932;BME280;8065;49.520;11.284;2023-02-20T09:09:50;98347.00;;;14.21;66.42
15932;BME280;8065;49.520;11.284;2023-02-20T09:12:17;98334.84;;;14.32;65.09
15932;BME280;8065;49.520;11.284;2023-02-20T09:14:45;98345.50;;;14.49;64.48
15932;BME280;8065;49.520;11.284;2023-02-20T09:17:12;98330.28;;;14.70;62.83
15932;BME280;8065;49.520;11.284;2023-02-20T09:19:39;98339.25;;;14.95;62.94
15932;BME280;8065;49.520;11.284;2023-02-20T09:22:05;98335.94;;;15.19;61.12
15932;BME280;8065;49.520;11.284;2023-02-20T09:24:31;98328.88;;;15.35;61.37
15932;BME280;8065;49.520;11.284;2023-02-20T09:27:00;98329.66;;;15.36;59.97
15932;BME280;8065;49.520;11.284;2023-02-20T09:29:27;98317.25;;;15.52;60.16
15932;BME280;8065;49.520;11.284;2023-02-20T09:31:54;98311.09;;;15.52;59.75
15932;BME280;8065;49.520;11.284;2023-02-20T09:34:21;98315.50;;;16.01;59.58
15932;BME280;8065;49.520;11.284;2023-02-20T09:36:47;98308.41;;;16.30;58.66
15932;BME280;8065;49.520;11.284;2023-02-20T09:39:14;98307.94;;;16.40;58.35
15932;BME280;8065;49.520;11.284;2023-02-20T09:41:53;98288.72;;;16.38;57.35
15932;BME280;8065;49.520;11.284;2023-02-20T09:44:25;98291.41;;;16.26;57.91
15932;BME280;8065;49.520;11.284;2023-02-20T09:47:01;98288.25;;;16.73;57.46
15932;BME280;8065;49.520;11.284;2023-02-20T09:49:29;98270.34;;;16.89;57.26
15932;BME280;8065;49.520;11.284;2023-02-20T09:51:59;98284.84;;;17.00;56.20
15932;BME280;8065;49.520;11.284;2023-02-20T09:54:30;98274.94;;;16.64;56.74
15932;BME280;8065;49.520;11.284;2023-02-20T09:57:00;98286.56;;;16.92;55.69
15932;BME280;8065;49.520;11.284;2023-02-20T09:59:28;98278.63;;;16.84;56.00
15932;BME280;8065;49.520;11.284;2023-02-20T10:02:00;98281.78;;;16.74;56.31
15932;BME280;8065;49.520;11.284;2023-02-20T10:04:31;98269.22;;;16.90;56.35
15932;BME280;8065;49.520;11.284;2023-02-20T10:07:06;98267.25;;;17.58;55.67
15932;BME280;8065;49.520;11.284;2023-02-20T10:09:38;98265.59;;;17.54;54.72
15932;BME280;8065;49.520;11.284;2023-02-20T10:12:09;98260.66;;;17.56;54.29
15932;BME280;8065;49.520;11.284;2023-02-20T10:15:11;98252.25;;;17.57;54.45
15932;BME280;8065;49.520;11.284;2023-02-20T10:17:49;98253.03;;;18.01;54.24
15932;BME280;8065;49.520;11.284;2023-02-20T10:20:24;98251.72;;;17.95;54.77
15932;BME280;8065;49.520;11.284;2023-02-20T10:22:55;98255.13;;;18.08;54.58
15932;BME280;8065;49.520;11.284;2023-02-20T10:25:27;98259.00;;;17.79;55.20
15932;BME280;8065;49.520;11.284;2023-02-20T10:28:01;98253.16;;;17.33;54.58
15932;BME280;8065;49.520;11.284;2023-02-20T10:30:30;98259.50;;;16.61;56.30
15932;BME280;8065;49.520;11.284;2023-02-20T10:33:14;98249.59;;;16.00;57.72
15932;BME280;8065;49.520;11.284;2023-02-20T10:35:46;98249.16;;;15.98;57.99
15932;BME280;8065;49.520;11.284;2023-02-20T10:38:19;98241.09;;;16.11;58.21
15932;BME280;8065;49.520;11.284;2023-02-20T10:40:48;98252.16;;;16.46;58.41
15932;BME280;8065;49.520;11.284;2023-02-20T10:43:19;98231.66;;;16.78;56.72
15932;BME280;8065;49.520;11.284;2023-02-20T10:45:52;98240.84;;;16.64;56.08
15932;BME280;8065;49.520;11.284;2023-02-20T10:48:25;98237.03;;;16.78;56.13
15932;BME280;8065;49.520;11.284;2023-02-20T10:51:02;98229.16;;;16.45;55.49
15932;BME280;8065;49.520;11.284;2023-02-20T10:53:36;98235.97;;;16.42;55.64
15932;BME280;8065;49.520;11.284;2023-02-20T10:56:09;98224.44;;;16.42;56.34
15932;BME280;8065;49.520;11.284;2023-02-20T10:58:39;98209.31;;;16.49;56.77
15932;BME280;8065;49.520;11.284;2023-02-20T11:01:10;98222.00;;;16.89;56.57
15932;BME280;8065;49.520;11.284;2023-02-20T11:03:44;98217.03;;;17.03;56.39
15932;BME280;8065;49.520;11.284;2023-02-20T11:06:15;98198.53;;;16.86;56.22
15932;BME280;8065;49.520;11.284;2023-02-20T11:08:43;98203.25;;;16.77;56.46
15932;BME280;8065;49.520;11.284;2023-02-20T11:11:22;98200.38;;;16.57;56.83
15932;BME280;8065;49.520;11.284;2023-02-20T11:13:49;98202.13;;;16.13;57.14
15932;BME280;8065;49.520;11.284;2023-02-20T11:16:21;98194.41;;;15.99;58.09
15932;BME280;8065;49.520;11.284;2023-02-20T11:19:00;98178.78;;;16.54;57.71
15932;BME280;8065;49.520;11.284;2023-02-20T11:21:39;98178.94;;;16.45;56.73
15932;BME280;8065;49.520;11.284;2023-02-20T11:24:33;98179.19;;;16.40;56.77
15932;BME280;8065;49.520;11.284;2023-02-20T11:27:11;98162.38;;;16.95;56.36
15932;BME280;8065;49.520;11.284;2023-02-20T11:29:42;98160.34;;;17.36;55.91
15932;BME280;8065;49.520;11.284;2023-02-20T11:32:28;98166.50;;;17.52;55.34
15932;BME280;8065;49.520;11.284;2023-02-20T11:38:18;98141.25;;;18.20;53.95
15932;BME280;8065;49.520;11.284;2023-02-20T11:40:46;98145.34;;;18.14;54.33
15932;BME280;8065;49.520;11.284;2023-02-20T11:43:18;98132.47;;;17.88;54.29
15932;BME280;8065;49.520;11.284;2023-02-20T11:45:46;98133.94;;;17.85;55.01
15932;BME280;8065;49.520;11.284;2023-02-20T11:48:14;98142.78;;;17.70;54.69
15932;BME280;8065;49.520;11.284;2023-02-20T11:50:44;98130.69;;;18.11;54.73
15932;BME280;8065;49.520;11.284;2023-02-20T11:53:18;98122.78;;;18.38;54.25
15932;BME280;8065;49.520;11.284;2023-02-20T11:55:46;98125.81;;;18.36;53.10
15932;BME280;8065;49.520;11.284;2023-02-20T11:58:20;98115.16;;;18.05;53.27
15932;BME280;8065;49.520;11.284;2023-02-20T12:00:49;98112.38;;;18.17;53.58
15932;BME280;8065;49.520;11.284;2023-02-20T12:03:20;98106.69;;;18.41;53.26
15932;BME280;8065;49.520;11.284;2023-02-20T12:05:50;98113.25;;;18.24;52.28
15932;BME280;8065;49.520;11.284;2023-02-20T12:08:30;98119.00;;;18.04;52.55
15932;BME280;8065;49.520;11.284;2023-02-20T12:11:00;98100.38;;;17.63;53.12
15932;BME280;8065;49.520;11.284;2023-02-20T12:13:33;98108.59;;;17.55;53.36
15932;BME280;8065;49.520;11.284;2023-02-20T12:16:13;98090.84;;;17.66;53.13
15932;BME280;8065;49.520;11.284;2023-02-20T12:18:51;98081.72;;;17.55;53.49
15932;BME280;8065;49.520;11.284;2023-02-20T12:21:28;98086.25;;;17.82;53.23
15932;BME280;8065;49.520;11.284;2023-02-20T12:24:08;98074.38;;;17.67;53.22
15932;BME280;8065;49.520;11.284;2023-02-20T12:26:45;98071.56;;;17.64;53.34
15932;BME280;8065;49.520;11.284;2023-02-20T12:29:23;98068.56;;;17.50;53.40
15932;BME280;8065;49.520;11.284;2023-02-20T12:32:03;98064.19;;;17.92;53.35
15932;BME280;8065;49.520;11.284;2023-02-20T12:37:44;98048.50;;;18.14;52.29
15932;BME280;8065;49.520;11.284;2023-02-20T12:40:31;98063.09;;;18.13;52.27
15932;BME280;8065;49.520;11.284;2023-02-20T12:43:06;98062.22;;;18.09;52.53
15932;BME280;8065;49.520;11.284;2023-02-20T12:45:38;98040.81;;;17.77;53.11
15932;BME280;8065;49.520;11.284;2023-02-20T12:48:26;98042.81;;;17.99;53.34
15932;BME280;8065;49.520;11.284;2023-02-20T12:51:08;98031.44;;;18.06;53.04
15932;BME280;8065;49.520;11.284;2023-02-20T12:53:47;98033.06;;;18.11;52.94
15932;BME280;8065;49.520;11.284;2023-02-20T12:56:27;98024.97;;;17.91;53.44
15932;BME280;8065;49.520;11.284;2023-02-20T12:59:04;98017.13;;;17.83;53.56
15932;BME280;8065;49.520;11.284;2023-02-20T13:01:34;98018.19;;;17.97;52.50
15932;BME280;8065;49.520;11.284;2023-02-20T13:04:04;98022.72;;;17.93;51.84
15932;BME280;8065;49.520;11.284;2023-02-20T13:06:35;98010.06;;;18.13;51.86
15932;BME280;8065;49.520;11.284;2023-02-20T13:09:14;98012.09;;;18.00;51.66
15932;BME280;8065;49.520;11.284;2023-02-20T13:11:43;98012.66;;;18.29;51.06
15932;BME280;8065;49.520;11.284;2023-02-20T13:14:31;98008.13;;;18.33;51.83
15932;BME280;8065;49.520;11.284;2023-02-20T13:17:07;98014.50;;;18.44;51.02
15932;BME280;8065;49.520;11.284;2023-02-20T13:19:41;98016.00;;;18.84;50.11
15932;BME280;8065;49.520;11.284;2023-02-20T13:22:09;98007.38;;;18.75;50.06
15932;BME280;8065;49.520;11.284;2023-02-20T13:24:38;97999.00;;;18.80;48.98